sensor_id;sensor_type;location;lat;lon;timestamp;temperature;humidity
64599;SHT31;51008;51.504;11.548;2023-05-28T00:02:06;10.76;70.46
64599;SHT31;51008;51.504;11.548;2023-05-28T00:07:07;10.42;71.30
64599;SHT31;51008;51.504;11.548;2023-05-28T00:12:08;10.35;72.49
64599;SHT31;51008;51.504;11.548;2023-05-28T00:17:09;10.18;72.78
64599;SHT31;51008;51.504;11.548;2023-05-28T00:22:11;10.20;72.44
64599;SHT31;51008;51.504;11.548;2023-05-28T00:27:12;10.22;72.07
64599;SHT31;51008;51.504;11.548;2023-05-28T00:32:13;10.20;72.37
64599;SHT31;51008;51.504;11.548;2023-05-28T00:37:14;10.10;72.44
64599;SHT31;51008;51.504;11.548;2023-05-28T00:42:15;10.04;72.55
64599;SHT31;51008;51.504;11.548;2023-05-28T00:47:16;9.90;73.05
64599;SHT31;51008;51.504;11.548;2023-05-28T00:52:17;9.85;73.95
64599;SHT31;51008;51.504;11.548;2023-05-28T00:57:18;9.72;74.58
64599;SHT31;51008;51.504;11.548;2023-05-28T01:02:19;9.65;74.86
64599;SHT31;51008;51.504;11.548;2023-05-28T01:07:20;9.49;75.21
64599;SHT31;51008;51.504;11.548;2023-05-28T01:12:23;9.65;74.88
64599;SHT31;51008;51.504;11.548;2023-05-28T01:17:24;9.41;75.74
64599;SHT31;51008;51.504;11.548;2023-05-28T01:22:28;9.35;75.69
64599;SHT31;51008;51.504;11.548;2023-05-28T01:27:30;9.25;76.08
64599;SHT31;51008;51.504;11.548;2023-05-28T01:32:31;9.21;76.27
64599;SHT31;51008;51.504;11.548;2023-05-28T01:37:37;9.27;75.92
64599;SHT31;51008;51.504;11.548;2023-05-28T01:42:40;9.24;76.39
64599;SHT31;51008;51.504;11.548;2023-05-28T01:47:41;9.13;76.66
64599;SHT31;51008;51.504;11.548;2023-05-28T01:52:42;9.06;76.68
64599;SHT31;51008;51.504;11.548;2023-05-28T01:57:43;9.06;76.36
64599;SHT31;51008;51.504;11.548;2023-05-28T02:02:44;8.99;76.40
64599;SHT31;51008;51.504;11.548;2023-05-28T02:07:49;8.89;76.92
64599;SHT31;51008;51.504;11.548;2023-05-28T02:12:50;8.83;76.79
64599;SHT31;51008;51.504;11.548;2023-05-28T02:17:51;8.82;76.61
64599;SHT31;51008;51.504;11.548;2023-05-28T02:22:52;8.75;76.76
64599;SHT31;51008;51.504;11.548;2023-05-28T02:27:53;8.73;76.55
64599;SHT31;51008;51.504;11.548;2023-05-28T02:32:54;8.66;76.64
64599;SHT31;51008;51.504;11.548;2023-05-28T02:37:56;8.56;76.92
64599;SHT31;51008;51.504;11.548;2023-05-28T02:42:57;8.64;77.14
64599;SHT31;51008;51.504;11.548;2023-05-28T02:47:58;8.58;76.90
64599;SHT31;51008;51.504;11.548;2023-05-28T02:53:00;8.52;76.66
64599;SHT31;51008;51.504;11.548;2023-05-28T02:58:02;8.49;76.95
64599;SHT31;51008;51.504;11.548;2023-05-28T03:03:04;8.38;78.19
64599;SHT31;51008;51.504;11.548;2023-05-28T03:08:05;8.40;78.19
64599;SHT31;51008;51.504;11.548;2023-05-28T03:13:06;8.38;77.66
64599;SHT31;51008;51.504;11.548;2023-05-28T03:18:07;8.51;77.45
64599;SHT31;51008;51.504;11.548;2023-05-28T03:23:13;8.52;77.56
64599;SHT31;51008;51.504;11.548;2023-05-28T03:28:34;8.44;77.86
64599;SHT31;51008;51.504;11.548;2023-05-28T03:33:51;8.42;77.77
64599;SHT31;51008;51.504;11.548;2023-05-28T03:38:53;8.28;78.25
64599;SHT31;51008;51.504;11.548;2023-05-28T03:43:56;8.40;78.68
64599;SHT31;51008;51.504;11.548;2023-05-28T03:48:57;8.59;78.62
64599;SHT31;51008;51.504;11.548;2023-05-28T03:54:00;8.82;78.42
64599;SHT31;51008;51.504;11.548;2023-05-28T03:59:02;9.14;78.44
64599;SHT31;51008;51.504;11.548;2023-05-28T04:04:05;9.51;77.81
64599;SHT31;51008;51.504;11.548;2023-05-28T04:09:08;9.94;77.72
64599;SHT31;51008;51.504;11.548;2023-05-28T04:14:09;10.31;78.01
64599;SHT31;51008;51.504;11.548;2023-05-28T04:19:10;10.66;76.92
64599;SHT31;51008;51.504;11.548;2023-05-28T04:24:11;11.00;76.06
64599;SHT31;51008;51.504;11.548;2023-05-28T04:29:12;11.42;74.81
64599;SHT31;51008;51.504;11.548;2023-05-28T04:34:13;11.83;74.64
64599;SHT31;51008;51.504;11.548;2023-05-28T04:39:14;12.24;72.97
64599;SHT31;51008;51.504;11.548;2023-05-28T04:44:16;12.63;72.81
64599;SHT31;51008;51.504;11.548;2023-05-28T04:49:17;12.93;72.43
64599;SHT31;51008;51.504;11.548;2023-05-28T04:54:18;13.25;71.45
64599;SHT31;51008;51.504;11.548;2023-05-28T04:59:19;13.52;72.21
64599;SHT31;51008;51.504;11.548;2023-05-28T05:04:20;13.69;70.68
64599;SHT31;51008;51.504;11.548;2023-05-28T05:09:21;13.85;69.77
64599;SHT31;51008;51.504;11.548;2023-05-28T05:14:23;14.04;70.39
64599;SHT31;51008;51.504;11.548;2023-05-28T05:19:24;14.35;70.07
64599;SHT31;51008;51.504;11.548;2023-05-28T05:24:25;14.62;68.41
64599;SHT31;51008;51.504;11.548;2023-05-28T05:29:26;14.80;67.72
64599;SHT31;51008;51.504;11.548;2023-05-28T05:34:27;14.97;65.50
64599;SHT31;51008;51.504;11.548;2023-05-28T05:39:46;15.11;65.01
64599;SHT31;51008;51.504;11.548;2023-05-28T05:45:06;15.28;64.03
64599;SHT31;51008;51.504;11.548;2023-05-28T05:50:11;15.50;63.52
64599;SHT31;51008;51.504;11.548;2023-05-28T05:55:12;15.78;63.43
64599;SHT31;51008;51.504;11.548;2023-05-28T06:00:14;15.90;63.58
64599;SHT31;51008;51.504;11.548;2023-05-28T06:05:15;16.12;62.65
64599;SHT31;51008;51.504;11.548;2023-05-28T06:10:36;16.42;63.09
64599;SHT31;51008;51.504;11.548;2023-05-28T06:15:37;16.53;62.69
64599;SHT31;51008;51.504;11.548;2023-05-28T06:20:38;16.75;61.46
64599;SHT31;51008;51.504;11.548;2023-05-28T06:25:40;16.89;59.67
64599;SHT31;51008;51.504;11.548;2023-05-28T06:30:41;17.18;59.71
64599;SHT31;51008;51.504;11.548;2023-05-28T06:35:43;17.33;60.76
64599;SHT31;51008;51.504;11.548;2023-05-28T06:40:44;17.54;58.68
64599;SHT31;51008;51.504;11.548;2023-05-28T06:45:45;17.78;59.30
64599;SHT31;51008;51.504;11.548;2023-05-28T06:50:47;18.01;59.36
64599;SHT31;51008;51.504;11.548;2023-05-28T06:55:48;18.40;58.58
64599;SHT31;51008;51.504;11.548;2023-05-28T07:01:18;18.64;57.08
64599;SHT31;51008;51.504;11.548;2023-05-28T07:06:42;18.87;56.29
64599;SHT31;51008;51.504;11.548;2023-05-28T07:11:49;19.18;57.28
64599;SHT31;51008;51.504;11.548;2023-05-28T07:16:51;19.46;55.85
64599;SHT31;51008;51.504;11.548;2023-05-28T07:21:53;19.78;54.60
64599;SHT31;51008;51.504;11.548;2023-05-28T07:26:55;19.81;53.56
64599;SHT31;51008;51.504;11.548;2023-05-28T07:31:57;20.50;54.25
64599;SHT31;51008;51.504;11.548;2023-05-28T07:37:00;20.79;51.88
64599;SHT31;51008;51.504;11.548;2023-05-28T07:42:02;21.40;50.29
64599;SHT31;51008;51.504;11.548;2023-05-28T07:47:09;21.98;48.97
64599;SHT31;51008;51.504;11.548;2023-05-28T07:52:36;22.62;46.76
64599;SHT31;51008;51.504;11.548;2023-05-28T07:57:37;22.72;46.86
64599;SHT31;51008;51.504;11.548;2023-05-28T08:02:38;22.91;46.65
64599;SHT31;51008;51.504;11.548;2023-05-28T08:07:40;23.64;44.93
64599;SHT31;51008;51.504;11.548;2023-05-28T08:12:42;23.74;43.00
64599;SHT31;51008;51.504;11.548;2023-05-28T08:17:43;23.98;42.99
64599;SHT31;51008;51.504;11.548;2023-05-28T08:22:49;24.23;43.06
64599;SHT31;51008;51.504;11.548;2023-05-28T08:27:51;24.60;43.48
64599;SHT31;51008;51.504;11.548;2023-05-28T08:32:53;24.53;42.28
64599;SHT31;51008;51.504;11.548;2023-05-28T08:37:54;24.81;39.65
64599;SHT31;51008;51.504;11.548;2023-05-28T08:43:10;24.92;40.47
64599;SHT31;51008;51.504;11.548;2023-05-28T08:48:12;24.57;37.35
64599;SHT31;51008;51.504;11.548;2023-05-28T08:53:16;24.64;40.72
64599;SHT31;51008;51.504;11.548;2023-05-28T08:58:20;25.33;39.73
64599;SHT31;51008;51.504;11.548;2023-05-28T09:03:24;25.31;39.10
64599;SHT31;51008;51.504;11.548;2023-05-28T09:08:26;25.78;39.24
64599;SHT31;51008;51.504;11.548;2023-05-28T09:13:29;25.84;40.53
64599;SHT31;51008;51.504;11.548;2023-05-28T09:18:31;26.06;36.52
64599;SHT31;51008;51.504;11.548;2023-05-28T09:23:32;26.07;38.60
64599;SHT31;51008;51.504;11.548;2023-05-28T09:28:59;24.90;39.30
64599;SHT31;51008;51.504;11.548;2023-05-28T09:34:04;24.95;40.05
64599;SHT31;51008;51.504;11.548;2023-05-28T09:39:08;25.09;38.99
64599;SHT31;51008;51.504;11.548;2023-05-28T09:44:09;25.65;38.73
64599;SHT31;51008;51.504;11.548;2023-05-28T09:49:10;24.72;39.72
64599;SHT31;51008;51.504;11.548;2023-05-28T09:54:11;24.12;40.82
64599;SHT31;51008;51.504;11.548;2023-05-28T09:59:13;24.36;41.92
64599;SHT31;51008;51.504;11.548;2023-05-28T10:04:22;25.40;39.78
64599;SHT31;51008;51.504;11.548;2023-05-28T10:09:24;25.92;38.13
64599;SHT31;51008;51.504;11.548;2023-05-28T10:14:26;25.78;39.25
64599;SHT31;51008;51.504;11.548;2023-05-28T10:19:28;25.67;38.24
64599;SHT31;51008;51.504;11.548;2023-05-28T10:24:30;24.57;39.24
64599;SHT31;51008;51.504;11.548;2023-05-28T10:29:50;24.76;38.99
64599;SHT31;51008;51.504;11.548;2023-05-28T10:35:00;25.43;41.03
64599;SHT31;51008;51.504;11.548;2023-05-28T10:40:01;25.95;38.18
64599;SHT31;51008;51.504;11.548;2023-05-28T10:50:14;26.00;36.70
64599;SHT31;51008;51.504;11.548;2023-05-28T10:55:16;25.51;38.36
64599;SHT31;51008;51.504;11.548;2023-05-28T11:00:24;25.61;38.67
64599;SHT31;51008;51.504;11.548;2023-05-28T11:05:25;25.50;38.86
64599;SHT31;51008;51.504;11.548;2023-05-28T11:10:27;26.06;39.72
64599;SHT31;51008;51.504;11.548;2023-05-28T11:15:28;26.31;37.11
64599;SHT31;51008;51.504;11.548;2023-05-28T11:20:30;26.31;38.54
64599;SHT31;51008;51.504;11.548;2023-05-28T11:25:31;26.34;40.52
64599;SHT31;51008;51.504;11.548;2023-05-28T11:30:32;26.71;38.07
64599;SHT31;51008;51.504;11.548;2023-05-28T11:35:33;26.44;39.17
64599;SHT31;51008;51.504;11.548;2023-05-28T11:40:34;26.44;40.05
64599;SHT31;51008;51.504;11.548;2023-05-28T11:45:36;26.36;39.07
64599;SHT31;51008;51.504;11.548;2023-05-28T11:50:38;26.29;37.96
64599;SHT31;51008;51.504;11.548;2023-05-28T11:55:39;26.54;36.90
64599;SHT31;51008;51.504;11.548;2023-05-28T12:00:40;26.37;38.12
64599;SHT31;51008;51.504;11.548;2023-05-28T12:05:41;25.90;40.03
64599;SHT31;51008;51.504;11.548;2023-05-28T12:10:42;25.79;39.81
64599;SHT31;51008;51.504;11.548;2023-05-28T12:15:43;26.10;39.17
64599;SHT31;51008;51.504;11.548;2023-05-28T12:20:44;26.24;38.79
64599;SHT31;51008;51.504;11.548;2023-05-28T12:25:46;25.90;38.11
64599;SHT31;51008;51.504;11.548;2023-05-28T12:30:50;25.88;38.91
64599;SHT31;51008;51.504;11.548;2023-05-28T12:35:51;25.81;39.18
64599;SHT31;51008;51.504;11.548;2023-05-28T12:40:52;26.02;38.51
64599;SHT31;51008;51.504;11.548;2023-05-28T12:45:53;25.68;39.52
64599;SHT31;51008;51.504;11.548;2023-05-28T12:50:55;26.10;39.26
64599;SHT31;51008;51.504;11.548;2023-05-28T12:55:56;26.29;38.56
64599;SHT31;51008;51.504;11.548;2023-05-28T13:00:56;25.65;40.82
64599;SHT31;51008;51.504;11.548;2023-05-28T13:05:58;25.74;38.50
64599;SHT31;51008;51.504;11.548;2023-05-28T13:10:59;26.16;40.14
64599;SHT31;51008;51.504;11.548;2023-05-28T13:16:00;26.36;40.59
64599;SHT31;51008;51.504;11.548;2023-05-28T13:21:01;25.68;38.86
64599;SHT31;51008;51.504;11.548;2023-05-28T13:26:02;25.79;42.46
64599;SHT31;51008;51.504;11.548;2023-05-28T13:31:03;25.67;40.29
64599;SHT31;51008;51.504;11.548;2023-05-28T13:36:04;25.69;40.14
64599;SHT31;51008;51.504;11.548;2023-05-28T13:41:05;25.62;39.46
64599;SHT31;51008;51.504;11.548;2023-05-28T13:46:06;25.69;41.68
64599;SHT31;51008;51.504;11.548;2023-05-28T13:51:07;25.51;39.99
64599;SHT31;51008;51.504;11.548;2023-05-28T13:56:08;25.77;37.31
64599;SHT31;51008;51.504;11.548;2023-05-28T14:01:10;25.86;39.57
64599;SHT31;51008;51.504;11.548;2023-05-28T14:06:11;25.92;39.31
64599;SHT31;51008;51.504;11.548;2023-05-28T14:11:12;26.16;39.80
64599;SHT31;51008;51.504;11.548;2023-05-28T14:16:13;26.13;39.22
64599;SHT31;51008;51.504;11.548;2023-05-28T14:21:14;26.17;38.77
64599;SHT31;51008;51.504;11.548;2023-05-28T14:26:15;26.00;39.76
64599;SHT31;51008;51.504;11.548;2023-05-28T14:31:16;25.65;40.01
64599;SHT31;51008;51.504;11.548;2023-05-28T14:36:17;25.71;42.44
64599;SHT31;51008;51.504;11.548;2023-05-28T14:41:18;25.55;41.28
64599;SHT31;51008;51.504;11.548;2023-05-28T14:46:20;25.03;42.09
64599;SHT31;51008;51.504;11.548;2023-05-28T14:51:20;25.00;40.67
64599;SHT31;51008;51.504;11.548;2023-05-28T14:56:21;25.24;40.24
64599;SHT31;51008;51.504;11.548;2023-05-28T15:01:23;25.41;41.56
64599;SHT31;51008;51.504;11.548;2023-05-28T15:06:24;25.44;42.01
64599;SHT31;51008;51.504;11.548;2023-05-28T15:11:24;25.58;41.13
64599;SHT31;51008;51.504;11.548;2023-05-28T15:16:25;25.54;39.86
64599;SHT31;51008;51.504;11.548;2023-05-28T15:21:26;25.37;42.45
64599;SHT31;51008;51.504;11.548;2023-05-28T15:26:27;25.17;41.62
64599;SHT31;51008;51.504;11.548;2023-05-28T15:31:29;25.09;41.61
64599;SHT31;51008;51.504;11.548;2023-05-28T15:36:30;24.98;40.45
64599;SHT31;51008;51.504;11.548;2023-05-28T15:41:33;24.76;39.48
64599;SHT31;51008;51.504;11.548;2023-05-28T15:46:34;24.65;41.31
64599;SHT31;51008;51.504;11.548;2023-05-28T15:51:35;24.63;43.00
64599;SHT31;51008;51.504;11.548;2023-05-28T15:56:36;24.68;43.54
64599;SHT31;51008;51.504;11.548;2023-05-28T16:01:40;24.85;41.29
64599;SHT31;51008;51.504;11.548;2023-05-28T16:06:42;24.89;42.18
64599;SHT31;51008;51.504;11.548;2023-05-28T16:11:47;24.65;41.63
64599;SHT31;51008;51.504;11.548;2023-05-28T16:16:52;24.47;42.33
64599;SHT31;51008;51.504;11.548;2023-05-28T16:21:53;24.46;43.59
64599;SHT31;51008;51.504;11.548;2023-05-28T16:26:54;24.27;42.84
64599;SHT31;51008;51.504;11.548;2023-05-28T16:31:55;24.14;42.82
64599;SHT31;51008;51.504;11.548;2023-05-28T16:36:57;24.02;42.86
64599;SHT31;51008;51.504;11.548;2023-05-28T16:41:58;24.24;43.58
64599;SHT31;51008;51.504;11.548;2023-05-28T16:46:59;24.12;43.48
64599;SHT31;51008;51.504;11.548;2023-05-28T16:52:00;23.92;43.71
64599;SHT31;51008;51.504;11.548;2023-05-28T16:57:01;23.68;43.82
64599;SHT31;51008;51.504;11.548;2023-05-28T17:02:02;23.34;43.54
64599;SHT31;51008;51.504;11.548;2023-05-28T17:07:03;23.30;44.27
64599;SHT31;51008;51.504;11.548;2023-05-28T17:12:05;23.28;43.41
64599;SHT31;51008;51.504;11.548;2023-05-28T17:17:07;23.40;44.11
64599;SHT31;51008;51.504;11.548;2023-05-28T17:22:08;23.19;42.12
64599;SHT31;51008;51.504;11.548;2023-05-28T17:27:09;23.28;44.35
64599;SHT31;51008;51.504;11.548;2023-05-28T17:32:09;23.27;43.88
64599;SHT31;51008;51.504;11.548;2023-05-28T17:37:10;23.31;45.84
64599;SHT31;51008;51.504;11.548;2023-05-28T17:42:12;23.26;45.07
64599;SHT31;51008;51.504;11.548;2023-05-28T17:47:13;23.22;45.81
64599;SHT31;51008;51.504;11.548;2023-05-28T17:52:14;23.10;45.51
64599;SHT31;51008;51.504;11.548;2023-05-28T17:57:15;22.98;46.37
64599;SHT31;51008;51.504;11.548;2023-05-28T18:02:16;22.75;45.45
64599;SHT31;51008;51.504;11.548;2023-05-28T18:07:17;22.57;47.59
64599;SHT31;51008;51.504;11.548;2023-05-28T18:12:18;22.44;47.91
64599;SHT31;51008;51.504;11.548;2023-05-28T18:17:22;22.02;48.98
64599;SHT31;51008;51.504;11.548;2023-05-28T18:22:23;21.69;50.13
64599;SHT31;51008;51.504;11.548;2023-05-28T18:27:24;21.20;51.22
64599;SHT31;51008;51.504;11.548;2023-05-28T18:32:25;20.81;52.50
64599;SHT31;51008;51.504;11.548;2023-05-28T18:37:26;20.57;53.37
64599;SHT31;51008;51.504;11.548;2023-05-28T18:42:27;20.26;53.90
64599;SHT31;51008;51.504;11.548;2023-05-28T18:47:28;19.86;56.83
64599;SHT31;51008;51.504;11.548;2023-05-28T18:52:30;19.33;60.05
64599;SHT31;51008;51.504;11.548;2023-05-28T18:57:32;19.05;60.80
64599;SHT31;51008;51.504;11.548;2023-05-28T19:02:33;18.77;60.91
64599;SHT31;51008;51.504;11.548;2023-05-28T19:07:34;18.53;60.46
64599;SHT31;51008;51.504;11.548;2023-05-28T19:12:37;18.39;62.02
64599;SHT31;51008;51.504;11.548;2023-05-28T19:17:38;18.12;63.38
64599;SHT31;51008;51.504;11.548;2023-05-28T19:22:39;17.73;65.02
64599;SHT31;51008;51.504;11.548;2023-05-28T19:27:40;17.39;65.49
64599;SHT31;51008;51.504;11.548;2023-05-28T19:32:41;17.15;65.34
64599;SHT31;51008;51.504;11.548;2023-05-28T19:37:42;16.91;65.01
64599;SHT31;51008;51.504;11.548;2023-05-28T19:42:43;16.67;65.78
64599;SHT31;51008;51.504;11.548;2023-05-28T19:47:44;16.53;65.47
64599;SHT31;51008;51.504;11.548;2023-05-28T19:52:46;16.30;66.24
64599;SHT31;51008;51.504;11.548;2023-05-28T19:57:47;16.12;66.31
64599;SHT31;51008;51.504;11.548;2023-05-28T20:02:48;15.76;67.26
64599;SHT31;51008;51.504;11.548;2023-05-28T20:07:49;15.63;67.82
64599;SHT31;51008;51.504;11.548;2023-05-28T20:12:50;15.47;68.87
64599;SHT31;51008;51.504;11.548;2023-05-28T20:17:51;15.31;69.21
64599;SHT31;51008;51.504;11.548;2023-05-28T20:22:52;15.01;69.18
64599;SHT31;51008;51.504;11.548;2023-05-28T20:27:53;14.90;69.76
64599;SHT31;51008;51.504;11.548;2023-05-28T20:32:53;14.71;70.09
64599;SHT31;51008;51.504;11.548;2023-05-28T20:37:55;14.64;70.75
64599;SHT31;51008;51.504;11.548;2023-05-28T20:42:56;14.50;70.25
64599;SHT31;51008;51.504;11.548;2023-05-28T20:47:57;14.40;70.67
64599;SHT31;51008;51.504;11.548;2023-05-28T20:52:58;14.28;71.67
64599;SHT31;51008;51.504;11.548;2023-05-28T20:57:59;14.14;71.03
64599;SHT31;51008;51.504;11.548;2023-05-28T21:03:00;14.04;72.02
64599;SHT31;51008;51.504;11.548;2023-05-28T21:08:01;13.90;72.14
64599;SHT31;51008;51.504;11.548;2023-05-28T21:13:02;13.77;72.14
64599;SHT31;51008;51.504;11.548;2023-05-28T21:18:03;13.70;72.49
64599;SHT31;51008;51.504;11.548;2023-05-28T21:23:04;13.62;72.00
64599;SHT31;51008;51.504;11.548;2023-05-28T21:28:06;13.55;72.68
64599;SHT31;51008;51.504;11.548;2023-05-28T21:33:07;13.39;72.83
64599;SHT31;51008;51.504;11.548;2023-05-28T21:38:08;13.23;72.67
64599;SHT31;51008;51.504;11.548;2023-05-28T21:43:09;13.19;73.07
64599;SHT31;51008;51.504;11.548;2023-05-28T21:48:10;13.12;73.02
64599;SHT31;51008;51.504;11.548;2023-05-28T21:53:11;13.07;73.10
64599;SHT31;51008;51.504;11.548;2023-05-28T21:58:12;13.00;74.18
64599;SHT31;51008;51.504;11.548;2023-05-28T22:03:13;12.88;73.44
64599;SHT31;51008;51.504;11.548;2023-05-28T22:08:14;12.81;73.91
64599;SHT31;51008;51.504;11.548;2023-05-28T22:13:15;12.79;74.02
64599;SHT31;51008;51.504;11.548;2023-05-28T22:18:16;12.73;74.27
64599;SHT31;51008;51.504;11.548;2023-05-28T22:23:17;12.64;74.34
64599;SHT31;51008;51.504;11.548;2023-05-28T22:28:18;12.57;74.32
64599;SHT31;51008;51.504;11.548;2023-05-28T22:33:19;12.35;75.00
64599;SHT31;51008;51.504;11.548;2023-05-28T22:38:20;12.21;75.63
64599;SHT31;51008;51.504;11.548;2023-05-28T22:43:20;12.35;75.12
64599;SHT31;51008;51.504;11.548;2023-05-28T22:48:21;12.49;74.98
64599;SHT31;51008;51.504;11.548;2023-05-28T22:53:22;12.55;75.29
64599;SHT31;51008;51.504;11.548;2023-05-28T22:58:23;12.63;75.74
64599;SHT31;51008;51.504;11.548;2023-05-28T23:03:24;12.69;76.17
64599;SHT31;51008;51.504;11.548;2023-05-28T23:08:25;12.72;77.02
64599;SHT31;51008;51.504;11.548;2023-05-28T23:13:26;12.79;77.15
64599;SHT31;51008;51.504;11.548;2023-05-28T23:18:27;12.77;77.27
64599;SHT31;51008;51.504;11.548;2023-05-28T23:23:28;12.79;77.09
64599;SHT31;51008;51.504;11.548;2023-05-28T23:28:29;12.81;77.08
64599;SHT31;51008;51.504;11.548;2023-05-28T23:33:30;12.69;76.74
64599;SHT31;51008;51.504;11.548;2023-05-28T23:38:31;12.52;77.01
64599;SHT31;51008;51.504;11.548;2023-05-28T23:43:32;12.43;77.28
64599;SHT31;51008;51.504;11.548;2023-05-28T23:48:33;12.35;77.92
64599;SHT31;51008;51.504;11.548;2023-05-28T23:53:34;12.29;77.99
64599;SHT31;51008;51.504;11.548;2023-05-28T23:58:35;12.20;78.44
